createdAt,value
2019-06-01T00:01:00.161Z,12.67
2019-06-01T00:03:48.647Z,11.97
2019-06-01T00:06:36.536Z,12.17
2019-06-01T00:09:25.167Z,10.43
2019-06-01T00:12:13.352Z,20.53
2019-06-01T00:15:02.085Z,11.88
2019-06-01T00:17:50.359Z,18.13
2019-06-01T00:20:38.182Z,17.67
2019-06-01T00:23:26.456Z,13.72
2019-06-01T00:26:14.719Z,12.18
2019-06-01T00:29:03.165Z,13.20
2019-06-01T00:31:52.152Z,9.33
2019-06-01T00:34:41.257Z,14.10
2019-06-01T00:37:29.762Z,16.90
2019-06-01T00:40:19.252Z,11.12
2019-06-01T00:43:08.002Z,9.33
2019-06-01T00:45:56.354Z,19.10
2019-06-01T00:48:45.875Z,15.48
2019-06-01T00:51:34.219Z,8.40
2019-06-01T00:54:23.179Z,9.55
2019-06-01T00:57:11.110Z,10.00
2019-06-01T00:59:59.899Z,12.43
2019-06-01T01:02:48.122Z,9.77
2019-06-01T01:05:35.756Z,23.15
2019-06-01T01:08:23.734Z,19.05
2019-06-01T01:11:11.797Z,17.90
2019-06-01T01:14:00.155Z,16.93
2019-06-01T01:16:48.069Z,23.00
2019-06-01T01:19:36.606Z,22.45
2019-06-01T01:22:24.430Z,16.50
2019-06-01T01:25:12.754Z,15.90
2019-06-01T01:28:01.295Z,12.20
2019-06-01T01:31:03.090Z,18.73
2019-06-01T01:33:39.822Z,17.50
2019-06-01T01:36:28.429Z,11.23
2019-06-01T01:39:17.163Z,10.28
2019-06-01T01:42:04.901Z,23.37
2019-06-01T01:44:54.592Z,20.88
2019-06-01T01:47:43.211Z,18.67
2019-06-01T01:50:31.230Z,17.30
2019-06-01T01:53:18.895Z,16.43
2019-06-01T01:56:06.809Z,12.03
2019-06-01T01:58:56.410Z,22.73
2019-06-01T02:01:44.344Z,24.60
2019-06-01T02:04:32.434Z,39.73
2019-06-01T02:07:20.835Z,28.77
2019-06-01T02:10:10.725Z,21.17
2019-06-01T02:12:59.587Z,17.77
2019-06-01T02:15:47.941Z,15.17
2019-06-01T02:18:35.993Z,16.90
2019-06-01T02:21:24.153Z,24.97
2019-06-01T02:24:12.674Z,28.92
2019-06-01T02:27:01.349Z,26.90
2019-06-01T02:29:49.588Z,22.05
2019-06-01T02:32:38.020Z,21.83
2019-06-01T02:35:26.425Z,15.83
2019-06-01T02:38:15.064Z,12.03
2019-06-01T02:41:03.341Z,11.70
2019-06-01T02:43:52.366Z,12.47
2019-06-01T02:46:40.436Z,27.40
2019-06-01T02:49:29.359Z,23.10
2019-06-01T02:52:17.090Z,13.53
2019-06-01T02:55:08.865Z,17.82
2019-06-01T02:57:58.063Z,16.63
2019-06-01T03:00:49.848Z,15.15
2019-06-01T03:03:38.451Z,11.50
2019-06-01T03:06:29.302Z,13.13
2019-06-01T03:09:21.551Z,22.62
2019-06-01T03:12:12.763Z,16.90
2019-06-01T03:15:04.429Z,16.25
2019-06-01T03:17:56.446Z,17.87
2019-06-01T03:20:47.914Z,26.10
2019-06-01T03:23:37.908Z,15.75
2019-06-01T03:26:28.555Z,20.80
2019-06-01T03:29:19.698Z,17.30
2019-06-01T03:32:29.770Z,12.23
2019-06-01T03:34:58.687Z,17.82
2019-06-01T03:37:46.629Z,17.40
2019-06-01T03:40:35.167Z,14.40
2019-06-01T03:43:24.078Z,20.70
2019-06-01T03:46:13.101Z,17.40
2019-06-01T03:49:01.781Z,13.35
2019-06-01T03:51:49.531Z,14.67
2019-06-01T03:54:38.116Z,28.10
2019-06-01T03:57:26.883Z,21.27
2019-06-01T04:00:15.938Z,17.07
2019-06-01T04:03:05.013Z,15.87
2019-06-01T04:05:53.100Z,20.57
2019-06-01T04:08:42.118Z,26.68
2019-06-01T04:11:30.633Z,13.03
2019-06-01T04:14:18.614Z,14.45
2019-06-01T04:17:06.512Z,15.00
2019-06-01T04:19:54.708Z,18.85
2019-06-01T04:22:44.395Z,11.65
2019-06-01T04:25:32.754Z,10.87
2019-06-01T04:28:21.326Z,9.75
2019-06-01T04:31:10.721Z,13.00
2019-06-01T04:34:00.068Z,15.70
2019-06-01T04:36:48.280Z,16.77
2019-06-01T04:39:36.675Z,18.45
2019-06-01T04:42:24.807Z,13.63
2019-06-01T04:45:12.680Z,13.07
2019-06-01T04:48:01.208Z,10.13
2019-06-01T04:50:49.294Z,10.93
2019-06-01T04:53:38.192Z,12.20
2019-06-01T04:56:26.929Z,9.83
2019-06-01T04:59:15.450Z,8.75
2019-06-01T05:02:05.527Z,8.73
2019-06-01T05:04:53.603Z,8.00
2019-06-01T05:07:42.586Z,9.37
2019-06-01T05:10:32.006Z,8.30
2019-06-01T05:13:20.509Z,7.80
2019-06-01T05:16:08.287Z,9.47
2019-06-01T05:18:56.834Z,11.05
2019-06-01T05:21:44.810Z,8.97
2019-06-01T05:24:33.682Z,9.68
2019-06-01T05:27:22.324Z,8.43
2019-06-01T05:30:11.566Z,9.47
2019-06-01T05:33:00.312Z,11.50
2019-06-01T05:35:48.659Z,10.80
2019-06-01T05:38:36.747Z,10.95
2019-06-01T05:41:24.390Z,10.25
2019-06-01T05:44:12.885Z,8.35
2019-06-01T05:47:00.826Z,10.30
2019-06-01T05:49:49.446Z,7.12
2019-06-01T05:52:38.252Z,8.80
2019-06-01T05:55:26.718Z,7.45
2019-06-01T05:58:15.189Z,10.67
2019-06-01T06:01:03.232Z,9.27
2019-06-01T06:03:52.092Z,6.70
2019-06-01T06:06:40.317Z,7.63
2019-06-01T06:09:29.011Z,7.83
2019-06-01T06:12:17.300Z,8.43
2019-06-01T06:15:06.888Z,10.72
2019-06-01T06:17:55.042Z,7.87
2019-06-01T06:20:42.992Z,9.07
2019-06-01T06:23:31.273Z,10.03
2019-06-01T06:26:20.481Z,9.33
2019-06-01T06:29:09.602Z,6.90
2019-06-01T06:31:57.937Z,7.93
2019-06-01T06:34:46.046Z,7.08
2019-06-01T06:37:34.742Z,6.00
2019-06-01T06:40:22.863Z,9.60
2019-06-01T06:43:22.335Z,12.47
2019-06-01T06:46:01.398Z,6.83
2019-06-01T06:48:49.902Z,5.80
2019-06-01T06:51:38.230Z,6.47
2019-06-01T06:54:27.148Z,9.48
2019-06-01T06:57:15.958Z,7.20
2019-06-01T07:00:08.222Z,5.87
2019-06-01T07:02:56.056Z,6.30
2019-06-01T07:05:44.162Z,6.57
2019-06-01T07:08:32.707Z,8.83
2019-06-01T07:11:21.200Z,5.97
2019-06-01T07:14:09.800Z,6.62
2019-06-01T07:16:57.944Z,6.00
2019-06-01T07:19:46.097Z,6.10
2019-06-01T07:22:33.704Z,5.87
2019-06-01T07:25:21.872Z,5.12
2019-06-01T07:28:09.944Z,6.43
2019-06-01T07:30:57.747Z,6.05
2019-06-01T07:33:46.318Z,6.85
2019-06-01T07:36:34.350Z,7.37
2019-06-01T07:39:23.019Z,5.60
2019-06-01T07:42:10.568Z,6.67
2019-06-01T07:44:59.330Z,8.70
2019-06-01T07:47:47.535Z,9.47
2019-06-01T07:50:35.520Z,5.27
2019-06-01T07:53:24.066Z,5.58
2019-06-01T07:56:13.793Z,4.80
2019-06-01T07:59:02.690Z,3.50
2019-06-01T08:01:50.974Z,6.13
2019-06-01T08:04:52.531Z,4.67
2019-06-01T08:07:29.266Z,6.80
2019-06-01T08:10:16.968Z,5.90
2019-06-01T08:13:04.743Z,5.93
2019-06-01T08:15:52.609Z,8.70
2019-06-01T08:18:40.459Z,8.33
2019-06-01T08:21:28.596Z,7.43
2019-06-01T08:24:17.375Z,8.05
2019-06-01T08:27:05.126Z,4.70
2019-06-01T08:29:53.677Z,5.60
2019-06-01T08:32:42.102Z,5.93
2019-06-01T08:35:31.210Z,5.10
2019-06-01T08:38:19.370Z,5.93
2019-06-01T08:41:07.813Z,4.78
2019-06-01T08:43:56.430Z,3.67
2019-06-01T08:46:44.638Z,6.07
2019-06-01T08:49:34.353Z,4.45
2019-06-01T08:52:23.889Z,3.90
2019-06-01T08:55:11.847Z,7.30
2019-06-01T08:57:59.795Z,4.53
2019-06-01T09:00:47.941Z,4.73
2019-06-01T09:03:43.632Z,5.03
2019-06-01T09:06:26.724Z,5.53
2019-06-01T09:09:14.764Z,6.10
2019-06-01T09:12:02.891Z,5.80
2019-06-01T09:14:50.719Z,4.63
2019-06-01T09:17:38.899Z,6.93
2019-06-01T09:20:27.445Z,3.40
2019-06-01T09:23:15.846Z,3.80
2019-06-01T09:26:04.242Z,3.57
2019-06-01T09:28:52.255Z,3.80
2019-06-01T09:31:40.336Z,5.07
2019-06-01T09:34:28.454Z,5.33
2019-06-01T09:37:17.155Z,3.60
2019-06-01T09:40:07.099Z,3.72
2019-06-01T09:42:54.911Z,4.50
2019-06-01T09:45:43.062Z,4.13
2019-06-01T09:48:31.432Z,4.63
2019-06-01T09:51:19.719Z,3.90
2019-06-01T09:54:07.984Z,3.87
2019-06-01T09:56:56.666Z,7.95
2019-06-01T09:59:44.428Z,4.33
2019-06-01T10:02:32.220Z,4.63
2019-06-01T10:05:19.943Z,3.77
2019-06-01T10:08:07.930Z,4.53
2019-06-01T10:10:56.387Z,5.10
2019-06-01T10:13:45.099Z,3.50
2019-06-01T10:16:34.529Z,4.67
2019-06-01T10:19:23.295Z,3.90
2019-06-01T10:22:11.539Z,8.80
2019-06-01T10:24:59.779Z,4.93
2019-06-01T10:27:48.399Z,3.80
2019-06-01T10:30:37.935Z,2.80
2019-06-01T10:33:26.254Z,4.97
2019-06-01T10:36:20.644Z,3.60
2019-06-01T10:39:05.842Z,4.07
2019-06-01T10:41:54.167Z,5.00
2019-06-01T10:44:45.715Z,3.73
2019-06-01T10:47:31.857Z,4.50
2019-06-01T10:50:20.064Z,4.30
2019-06-01T10:53:08.326Z,3.10
2019-06-01T10:55:57.070Z,5.25
2019-06-01T10:58:59.181Z,6.03
2019-06-01T11:01:36.291Z,2.83
2019-06-01T11:04:24.839Z,2.97
2019-06-01T11:07:13.172Z,4.93
2019-06-01T11:10:01.326Z,3.40
2019-06-01T11:12:49.219Z,6.73
2019-06-01T11:15:36.979Z,3.80
2019-06-01T11:18:24.510Z,4.43
2019-06-01T11:21:12.690Z,3.17
2019-06-01T11:24:01.008Z,5.90
2019-06-01T11:26:48.551Z,3.65
2019-06-01T11:29:42.880Z,4.73
2019-06-01T11:32:26.473Z,3.50
2019-06-01T11:35:15.228Z,3.23
2019-06-01T11:38:03.589Z,3.60
2019-06-01T11:40:51.655Z,3.60
2019-06-01T11:43:40.630Z,4.07
2019-06-01T11:46:28.660Z,3.00
2019-06-01T11:49:20.358Z,4.87
2019-06-01T11:52:05.854Z,5.83
2019-06-01T11:54:53.678Z,3.53
2019-06-01T11:57:41.785Z,3.93
2019-06-01T12:00:29.584Z,3.23
2019-06-01T12:03:17.342Z,3.07
2019-06-01T12:06:05.512Z,5.10
2019-06-01T12:08:53.795Z,3.70
2019-06-01T12:11:42.161Z,2.53
2019-06-01T12:14:30.674Z,5.60
2019-06-01T12:17:19.074Z,3.77
2019-06-01T12:20:08.262Z,6.10
2019-06-01T12:22:56.106Z,6.73
2019-06-01T12:25:44.362Z,2.72
2019-06-01T12:28:32.879Z,3.10
2019-06-01T12:31:20.716Z,2.80
2019-06-01T12:34:08.680Z,2.60
2019-06-01T12:36:57.051Z,3.10
2019-06-01T12:39:50.352Z,3.63
2019-06-01T12:42:35.303Z,5.93
2019-06-01T12:45:23.659Z,4.77
2019-06-01T12:48:12.142Z,2.37
2019-06-01T12:51:00.394Z,7.93
2019-06-01T12:53:48.633Z,2.73
2019-06-01T12:56:36.951Z,3.93
2019-06-01T12:59:25.115Z,2.40
2019-06-01T13:02:12.686Z,3.20
2019-06-01T13:05:00.311Z,2.47
2019-06-01T13:07:58.547Z,2.87
2019-06-01T13:10:37.891Z,4.23
2019-06-01T13:13:25.792Z,2.30
2019-06-01T13:16:14.101Z,2.57
2019-06-01T13:19:02.511Z,3.03
2019-06-01T13:21:51.721Z,2.63
2019-06-01T13:24:41.485Z,2.40
2019-06-01T13:27:30.099Z,3.07
2019-06-01T13:30:19.874Z,2.95
2019-06-01T13:33:08.483Z,2.37
2019-06-01T13:35:57.320Z,5.70
2019-06-01T13:38:46.606Z,3.23
2019-06-01T13:41:34.974Z,2.23
2019-06-01T13:44:23.577Z,2.27
2019-06-01T13:47:11.565Z,1.83
2019-06-01T13:49:59.970Z,2.47
2019-06-01T13:52:48.084Z,2.10
2019-06-01T13:55:36.754Z,2.63
2019-06-01T13:58:24.889Z,5.43
2019-06-01T14:01:13.386Z,2.20
2019-06-01T14:04:01.710Z,2.93
2019-06-01T14:06:51.061Z,2.47
2019-06-01T14:09:38.867Z,2.60
2019-06-01T14:12:26.967Z,2.53
2019-06-01T14:15:15.511Z,2.30
2019-06-01T14:18:03.611Z,3.27
2019-06-01T14:20:51.750Z,2.43
2019-06-01T14:23:40.071Z,2.13
2019-06-01T14:26:28.316Z,3.45
2019-06-01T14:29:16.922Z,2.40
2019-06-01T14:32:05.768Z,5.42
2019-06-01T14:34:54.802Z,2.90
2019-06-01T14:37:43.456Z,2.27
2019-06-01T14:40:31.785Z,3.75
2019-06-01T14:43:20.144Z,2.90
2019-06-01T14:46:08.706Z,3.87
2019-06-01T14:48:57.750Z,4.70
2019-06-01T14:51:47.380Z,2.53
2019-06-01T14:54:35.839Z,3.07
2019-06-01T14:57:24.296Z,3.07
2019-06-01T15:00:14.378Z,2.67
2019-06-01T15:03:02.848Z,2.67
2019-06-01T15:05:52.030Z,7.00
2019-06-01T15:08:40.327Z,2.60
2019-06-01T15:11:27.972Z,2.30
2019-06-01T15:14:15.909Z,2.57
2019-06-01T15:17:04.857Z,1.87
2019-06-01T15:19:54.125Z,3.80
2019-06-01T15:22:42.324Z,7.33
2019-06-01T15:25:30.658Z,2.43
2019-06-01T15:28:18.542Z,3.13
2019-06-01T15:31:06.400Z,16.33
2019-06-01T15:33:55.222Z,1.87
2019-06-01T15:36:43.945Z,11.95
2019-06-01T15:39:32.059Z,9.17
2019-06-01T15:42:20.547Z,4.27
2019-06-01T15:45:09.331Z,4.90
2019-06-01T15:47:57.780Z,2.73
2019-06-01T15:50:45.928Z,2.63
2019-06-01T15:53:34.284Z,3.70
2019-06-01T15:56:23.721Z,2.00
2019-06-01T15:59:11.934Z,3.73
2019-06-01T16:02:01.207Z,2.70
2019-06-01T16:04:49.320Z,3.17
2019-06-01T16:07:37.147Z,2.20
2019-06-01T16:10:25.243Z,2.23
2019-06-01T16:13:13.631Z,5.27
2019-06-01T16:16:03.525Z,2.20
2019-06-01T16:18:50.932Z,3.83
2019-06-01T16:21:39.082Z,2.30
2019-06-01T16:24:27.208Z,5.63
2019-06-01T16:27:15.326Z,2.83
2019-06-01T16:30:08.126Z,2.70
2019-06-01T16:32:56.498Z,2.30
2019-06-01T16:35:45.918Z,3.25
2019-06-01T16:38:33.963Z,2.07
2019-06-01T16:41:22.012Z,3.20
2019-06-01T16:44:09.979Z,10.77
2019-06-01T16:46:58.134Z,8.07
2019-06-01T16:49:46.635Z,3.10
2019-06-01T16:52:34.724Z,3.20
2019-06-01T16:55:22.967Z,2.97
2019-06-01T16:58:10.757Z,3.00
2019-06-01T17:00:58.815Z,2.10
2019-06-01T17:03:46.706Z,2.20
2019-06-01T17:06:36.910Z,2.30
2019-06-01T17:09:24.346Z,3.80
2019-06-01T17:12:12.350Z,2.80
2019-06-01T17:15:00.972Z,3.83
2019-06-01T17:17:54.608Z,3.63
2019-06-01T17:20:47.242Z,4.33
2019-06-01T17:23:35.310Z,2.63
2019-06-01T17:26:23.579Z,3.63
2019-06-01T17:29:11.477Z,6.17
2019-06-01T17:32:13.443Z,5.60
2019-06-01T17:34:49.111Z,4.93
2019-06-01T17:37:36.812Z,4.83
2019-06-01T17:40:36.666Z,4.60
2019-06-01T17:43:15.133Z,6.63
2019-06-01T17:46:03.227Z,9.30
2019-06-01T17:48:51.725Z,5.37
2019-06-01T17:51:39.823Z,2.60
2019-06-01T17:54:28.286Z,9.53
2019-06-01T17:57:16.634Z,5.73
2019-06-01T18:00:07.771Z,3.20
2019-06-01T18:02:57.126Z,3.50
2019-06-01T18:05:45.613Z,4.33
2019-06-01T18:08:33.684Z,3.37
2019-06-01T18:11:21.854Z,2.93
2019-06-01T18:14:10.586Z,8.87
2019-06-01T18:16:58.274Z,5.50
2019-06-01T18:19:46.423Z,4.77
2019-06-01T18:22:34.396Z,5.90
2019-06-01T18:25:24.817Z,7.77
2019-06-01T18:28:19.049Z,6.27
2019-06-01T18:31:02.731Z,4.87
2019-06-01T18:33:53.385Z,4.37
2019-06-01T18:36:39.710Z,6.80
2019-06-01T18:39:27.532Z,9.93
2019-06-01T18:42:18.737Z,3.77
2019-06-01T18:45:07.875Z,26.93
2019-06-01T18:47:56.162Z,15.87
2019-06-01T18:50:44.080Z,7.03
2019-06-01T18:53:32.171Z,8.40
2019-06-01T18:56:20.868Z,9.40
2019-06-01T18:59:10.224Z,4.87
2019-06-01T19:01:58.862Z,8.60
2019-06-01T19:04:46.706Z,9.50
2019-06-01T19:07:34.963Z,4.30
2019-06-01T19:10:24.560Z,4.17
2019-06-01T19:13:13.969Z,4.33
2019-06-01T19:16:03.383Z,9.13
2019-06-01T19:18:52.602Z,10.83
2019-06-01T19:21:40.918Z,11.20
2019-06-01T19:24:29.399Z,8.23
2019-06-01T19:27:20.232Z,14.97
2019-06-01T19:30:09.005Z,10.30
2019-06-01T19:32:58.703Z,9.43
2019-06-01T19:35:47.073Z,13.10
2019-06-01T19:38:36.142Z,10.50
2019-06-01T19:41:24.767Z,12.60
2019-06-01T19:44:13.668Z,10.60
2019-06-01T19:47:03.631Z,14.33
2019-06-01T19:49:53.276Z,9.03
2019-06-01T19:52:42.515Z,11.53
2019-06-01T19:55:30.905Z,10.20
2019-06-01T19:58:19.322Z,13.40
2019-06-01T20:01:07.115Z,10.33
2019-06-01T20:03:55.691Z,12.13
2019-06-01T20:06:45.632Z,7.00
2019-06-01T20:09:33.879Z,18.57
2019-06-01T20:12:22.548Z,10.10
2019-06-01T20:15:11.296Z,15.60
2019-06-01T20:17:59.912Z,18.50
2019-06-01T20:20:48.423Z,13.60
2019-06-01T20:23:38.739Z,14.93
2019-06-01T20:26:40.460Z,11.43
2019-06-01T20:29:17.672Z,14.87
2019-06-01T20:32:05.851Z,13.93
2019-06-01T20:34:53.931Z,16.27
2019-06-01T20:37:41.883Z,15.97
2019-06-01T20:40:30.915Z,12.58
2019-06-01T20:43:19.004Z,11.22
2019-06-01T20:46:07.155Z,14.57
2019-06-01T20:48:55.279Z,13.20
2019-06-01T20:51:44.907Z,19.42
2019-06-01T20:54:36.010Z,15.15
2019-06-01T20:57:25.351Z,15.23
2019-06-01T21:00:16.034Z,17.55
2019-06-01T21:03:05.639Z,23.87
2019-06-01T21:05:53.790Z,21.62
2019-06-01T21:08:41.984Z,17.75
2019-06-01T21:11:30.637Z,19.27
2019-06-01T21:14:19.203Z,20.10
2019-06-01T21:17:07.248Z,18.77
2019-06-01T21:19:55.404Z,15.25
2019-06-01T21:22:43.795Z,16.80
2019-06-01T21:25:32.012Z,21.00
2019-06-01T21:28:22.071Z,18.60
2019-06-01T21:31:09.601Z,25.60
2019-06-01T21:33:58.706Z,24.12
2019-06-01T21:36:47.248Z,24.43
2019-06-01T21:39:36.250Z,26.02
2019-06-01T21:42:25.994Z,16.50
2019-06-01T21:45:15.792Z,14.83
2019-06-01T21:48:03.517Z,12.97
2019-06-01T21:50:51.222Z,12.37
2019-06-01T21:53:39.495Z,11.88
2019-06-01T21:56:29.191Z,18.05
2019-06-01T21:59:18.520Z,20.92
2019-06-01T22:02:07.958Z,16.07
2019-06-01T22:04:56.945Z,18.75
2019-06-01T22:07:44.984Z,14.87
2019-06-01T22:10:32.959Z,14.87
2019-06-01T22:13:23.777Z,13.98
2019-06-01T22:16:10.077Z,12.50
2019-06-01T22:18:58.514Z,15.03
2019-06-01T22:21:46.836Z,22.47
2019-06-01T22:24:35.009Z,16.90
2019-06-01T22:27:24.193Z,14.87
2019-06-01T22:30:13.028Z,18.17
2019-06-01T22:33:01.896Z,26.87
2019-06-01T22:35:49.958Z,15.27
2019-06-01T22:38:38.257Z,15.90
2019-06-01T22:41:26.238Z,21.30
2019-06-01T22:44:14.701Z,16.60
2019-06-01T22:47:03.369Z,28.47
2019-06-01T22:49:51.932Z,19.75
2019-06-01T22:52:40.511Z,12.20
2019-06-01T22:55:28.914Z,21.40
2019-06-01T22:58:17.956Z,22.25
2019-06-01T23:01:06.529Z,18.17
2019-06-01T23:03:54.831Z,14.13
2019-06-01T23:06:44.257Z,20.83
2019-06-01T23:09:35.599Z,11.48
2019-06-01T23:12:23.810Z,13.10
2019-06-01T23:15:12.031Z,26.23
2019-06-01T23:18:00.732Z,16.82
2019-06-01T23:20:50.300Z,18.17
2019-06-01T23:23:39.061Z,19.82
2019-06-01T23:26:27.997Z,14.07
2019-06-01T23:29:18.515Z,18.57
2019-06-01T23:32:06.778Z,23.52
2019-06-01T23:34:55.885Z,18.00
2019-06-01T23:37:43.667Z,22.23
2019-06-01T23:40:33.374Z,16.50
2019-06-01T23:43:22.688Z,19.20
2019-06-01T23:46:13.020Z,18.53
2019-06-01T23:49:02.152Z,17.15
2019-06-01T23:51:53.436Z,18.73
2019-06-01T23:54:43.583Z,21.45
2019-06-01T23:57:32.101Z,18.30
